Time;durP1;ratioP1;P1;durP2;ratioP2;P2;SDS_P1;SDS_P2;PMS_P1;PMS_P2;Temp;Humidity;BMP_temperature;BMP_pressure;BME280_temperature;BME280_humidity;BME280_pressure;Samples;Min_cycle;Max_cycle;Signal;HPM_P1;HPM_P2
2022/10/03 00:01:16;;;;;;;13.23;11.55;;;20.20;92.80;;;;;;6338317;22;20401;-81
2022/10/03 00:04:09;;;;;;;11.65;10.45;;;20.20;92.80;;;;;;6337375;22;20011;-82
2022/10/03 00:07:01;;;;;;;12.38;10.40;;;20.20;92.90;;;;;;6339097;22;19998;-81
2022/10/03 00:09:33;;;;;;;15.40;11.18;;;20.20;92.90;;;;;;6338700;22;19998;-81
2022/10/03 00:12:08;;;;;;;13.30;10.90;;;20.20;92.90;;;;;;6338015;22;20007;-82
2022/10/03 00:15:04;;;;;;;12.68;11.35;;;20.20;92.90;;;;;;6338148;22;20421;-81
2022/10/03 00:17:49;;;;;;;13.43;11.85;;;20.20;92.90;;;;;;6339089;22;20003;-79
2022/10/03 00:20:45;;;;;;;14.52;12.05;;;20.20;92.80;;;;;;6338212;22;20002;-81
2022/10/03 00:23:34;;;;;;;15.45;12.05;;;20.10;92.80;;;;;;6337958;22;20030;-81
2022/10/03 00:26:34;;;;;;;13.02;11.00;;;20.10;92.80;;;;;;6338517;22;20094;-82
2022/10/03 00:29:06;;;;;;;;;;;20.20;92.80;;;;;;6339047;22;20002;-82
2022/10/03 00:31:55;;;;;;;15.55;13.48;;;20.20;92.80;;;;;;6338455;22;19899;-82
2022/10/03 00:34:23;;;;;;;14.05;11.02;;;20.10;92.80;;;;;;6338744;22;20022;-82
2022/10/03 00:37:07;;;;;;;14.63;12.20;;;20.10;92.90;;;;;;6338641;22;20037;-81
2022/10/03 00:39:36;;;;;;;14.80;12.13;;;20.00;93.00;;;;;;6338746;22;20003;-83
2022/10/03 00:42:34;;;;;;;14.65;12.02;;;20.00;92.90;;;;;;6338415;22;20393;-82
2022/10/03 00:45:00;;;;;;;15.27;12.60;;;20.00;93.00;;;;;;6338507;22;20421;-83
2022/10/03 00:47:51;;;;;;;13.55;12.15;;;20.00;92.90;;;;;;6338731;22;20057;-83
2022/10/03 00:50:23;;;;;;;15.00;12.73;;;20.00;93.00;;;;;;6338304;22;20009;-82
2022/10/03 00:52:48;;;;;;;18.00;15.45;;;20.00;93.00;;;;;;6337910;22;20719;-82
2022/10/03 00:55:14;;;;;;;15.80;13.85;;;19.90;93.00;;;;;;6338511;22;19995;-81
2022/10/03 00:58:15;;;;;;;16.98;14.85;;;20.00;93.20;;;;;;6338515;22;19995;-81
2022/10/03 01:00:45;;;;;;;16.63;14.35;;;20.00;93.00;;;;;;6268897;22;20002;-83
2022/10/03 01:03:22;;;;;;;19.08;14.82;;;19.90;93.00;;;;;;6338496;22;20060;-84
2022/10/03 01:06:25;;;;;;;17.38;14.52;;;19.90;93.10;;;;;;6339328;22;19999;-83
2022/10/03 01:09:09;;;;;;;24.88;18.33;;;19.90;93.10;;;;;;6338505;22;20002;-83
2022/10/03 01:12:04;;;;;;;17.23;15.43;;;19.90;93.10;;;;;;6310302;22;20014;-83
2022/10/03 01:14:48;;;;;;;17.40;15.50;;;19.80;93.20;;;;;;6337418;22;20002;-82
2022/10/03 01:17:21;;;;;;;17.25;15.00;;;19.80;93.20;;;;;;6338764;22;19999;-86
2022/10/03 01:20:25;;;;;;;17.92;15.55;;;19.80;93.20;;;;;;6339357;22;20006;-86
2022/10/03 01:23:06;;;;;;;19.55;15.02;;;19.80;93.20;;;;;;6212553;23;20005;-86
2022/10/03 01:25:52;;;;;;;;;;;19.80;93.20;;;;;;6329493;22;20060;-85
2022/10/03 01:31:51;;;;;;;19.00;16.50;;;19.80;93.30;;;;;;6338317;22;20101;-86
2022/10/03 01:34:20;;;;;;;20.17;16.02;;;19.80;93.30;;;;;;6339488;22;20328;-85
2022/10/03 01:37:21;;;;;;;21.30;16.88;;;19.80;93.30;;;;;;6339892;22;20052;-90
2022/10/03 01:40:03;;;;;;;19.05;15.48;;;19.80;93.40;;;;;;6339906;22;20002;-90
2022/10/03 01:42:43;;;;;;;21.85;17.58;;;19.80;93.30;;;;;;6339982;22;20034;-90
2022/10/03 01:45:42;;;;;;;19.87;17.47;;;19.80;93.40;;;;;;6338235;22;19994;-85
2022/10/03 01:48:11;;;;;;;20.77;16.75;;;19.80;93.40;;;;;;6339626;22;19998;-87
2022/10/03 01:51:08;;;;;;;22.42;19.20;;;19.80;93.40;;;;;;6339595;22;20002;-86
2022/10/03 01:53:41;;;;;;;20.38;16.73;;;19.70;93.50;;;;;;6338548;22;20090;-86
2022/10/03 01:56:48;;;;;;;18.55;16.05;;;19.70;93.50;;;;;;6339370;22;19999;-89
2022/10/03 01:59:21;;;;;;;21.48;17.70;;;19.70;93.50;;;;;;6322243;22;19999;-82
2022/10/03 02:02:06;;;;;;;25.35;20.70;;;19.80;93.50;;;;;;6310034;22;20032;-83
2022/10/03 02:04:50;;;;;;;19.60;16.67;;;19.80;93.60;;;;;;6337712;22;20090;-83
2022/10/03 02:07:28;;;;;;;20.83;18.45;;;19.70;93.50;;;;;;6337698;22;19995;-83
2022/10/03 02:10:26;;;;;;;21.17;18.17;;;19.70;93.50;;;;;;6337379;22;20425;-83
2022/10/03 02:13:22;;;;;;;21.67;17.85;;;19.70;93.50;;;;;;6279532;22;20003;-82
2022/10/03 02:16:09;;;;;;;22.10;18.38;;;19.70;93.50;;;;;;6313269;22;20005;-87
2022/10/03 02:18:46;;;;;;;21.77;17.33;;;19.70;93.50;;;;;;6339366;22;20075;-84
2022/10/03 02:21:26;;;;;;;21.52;17.70;;;19.70;93.50;;;;;;6338243;22;20403;-84
2022/10/03 02:24:21;;;;;;;23.20;17.77;;;19.80;93.40;;;;;;6339462;22;20047;-87
2022/10/03 02:27:11;;;;;;;21.95;18.05;;;19.80;93.30;;;;;;6311939;22;20329;-90
2022/10/03 02:30:09;;;;;;;22.73;17.58;;;19.80;93.30;;;;;;6340543;22;20003;-87
2022/10/03 02:32:38;;;;;;;22.58;16.88;;;19.80;93.30;;;;;;6339548;22;20294;-88
2022/10/03 02:35:18;;;;;;;21.02;17.77;;;19.70;93.20;;;;;;6311777;22;20333;-87
2022/10/03 02:38:07;;;;;;;18.25;15.98;;;19.70;93.20;;;;;;6338995;22;20027;-86
2022/10/03 02:41:00;;;;;;;21.80;16.55;;;19.70;93.20;;;;;;6338784;22;20085;-86
2022/10/03 02:43:59;;;;;;;19.77;16.63;;;19.70;93.20;;;;;;6339177;22;20082;-86
2022/10/03 02:46:46;;;;;;;20.65;17.40;;;19.60;93.30;;;;;;6339059;22;19995;-85
2022/10/03 02:49:32;;;;;;;21.80;17.60;;;19.60;93.30;;;;;;6338489;22;20006;-87
2022/10/03 02:52:15;;;;;;;21.73;17.77;;;19.60;93.30;;;;;;6339111;22;19999;-90
2022/10/03 02:55:04;;;;;;;22.17;18.10;;;19.60;93.30;;;;;;6339281;22;20055;-87
2022/10/03 02:57:38;;;;;;;19.65;16.10;;;19.60;93.40;;;;;;6339168;22;20041;-87
2022/10/03 03:00:13;;;;;;;21.45;18.35;;;19.50;93.40;;;;;;6339546;22;20003;-86
2022/10/03 03:03:00;;;;;;;23.52;18.25;;;19.60;93.40;;;;;;6339370;22;20314;-87
2022/10/03 03:06:03;;;;;;;26.05;19.17;;;19.60;93.40;;;;;;6339678;22;20073;-86
2022/10/03 03:09:06;;;;;;;20.63;16.90;;;19.50;93.40;;;;;;6338669;22;20066;-86
2022/10/03 03:11:38;;;;;;;20.25;17.38;;;19.50;93.40;;;;;;6339591;22;20006;-86
2022/10/03 03:14:09;;;;;;;19.45;17.30;;;19.40;93.50;;;;;;6311070;22;20007;-87
2022/10/03 03:17:10;;;;;;;19.33;16.67;;;19.30;93.60;;;;;;6340283;22;20435;-87
2022/10/03 03:19:44;;;;;;;;;;;19.30;93.70;;;;;;6311088;22;20333;-87
2022/10/03 03:22:50;;;;;;;19.63;16.63;;;19.20;93.70;;;;;;6339610;22;19989;-87
2022/10/03 03:25:16;;;;;;;27.95;21.52;;;19.20;93.80;;;;;;6339413;22;19995;-87
2022/10/03 03:28:12;;;;;;;19.40;17.08;;;19.10;93.80;;;;;;6338951;22;20005;-88
2022/10/03 03:30:57;;;;;;;27.23;20.25;;;19.10;93.80;;;;;;6338563;22;20003;-87
2022/10/03 03:33:25;;;;;;;22.17;18.73;;;19.10;93.90;;;;;;6338457;22;20527;-87
2022/10/03 03:35:51;;;;;;;26.15;21.25;;;19.10;94.00;;;;;;6338935;22;19995;-87
2022/10/03 03:38:55;;;;;;;26.80;20.65;;;19.00;94.00;;;;;;6340621;22;20021;-88
2022/10/03 03:41:44;;;;;;;19.85;17.08;;;19.10;94.10;;;;;;6312656;22;20332;-89
2022/10/03 03:44:42;;;;;;;23.60;19.83;;;19.00;94.10;;;;;;6340993;22;20305;-88
2022/10/03 03:47:37;;;;;;;22.60;19.23;;;19.00;94.10;;;;;;6313883;22;20002;-88
2022/10/03 03:50:30;;;;;;;24.00;19.80;;;19.10;94.10;;;;;;6339561;22;19999;-88
2022/10/03 03:53:17;;;;;;;22.80;19.17;;;19.10;94.00;;;;;;6340021;22;20002;-87
2022/10/03 03:56:16;;;;;;;24.30;20.65;;;19.10;93.90;;;;;;6339632;22;20002;-88
2022/10/03 03:59:05;;;;;;;26.95;21.05;;;19.20;93.90;;;;;;6340617;22;20032;-88
2022/10/03 04:01:49;;;;;;;25.75;20.55;;;19.20;93.90;;;;;;6340875;22;20006;-87
2022/10/03 04:04:46;;;;;;;25.90;22.67;;;19.10;93.80;;;;;;6341602;22;20014;-86
2022/10/03 04:07:17;;;;;;;27.00;22.05;;;19.10;93.90;;;;;;6340762;22;20017;-87
2022/10/03 04:09:52;;;;;;;27.52;22.33;;;19.10;93.80;;;;;;6339595;22;20005;-88
2022/10/03 04:12:40;;;;;;;28.35;23.20;;;19.00;94.00;;;;;;6340338;22;20002;-87
2022/10/03 04:15:08;;;;;;;36.13;29.40;;;18.90;94.10;;;;;;6340197;22;20068;-89
2022/10/03 04:20:29;;;;;;;30.48;25.15;;;18.80;94.40;;;;;;6341170;22;20056;-90
2022/10/03 04:23:24;;;;;;;26.48;23.13;;;18.70;94.60;;;;;;6341407;22;20405;-91
2022/10/03 04:26:14;;;;;;;24.58;20.95;;;18.70;94.50;;;;;;6341584;22;20057;-92
2022/10/03 04:29:01;;;;;;;29.38;24.05;;;18.60;94.80;;;;;;6340760;22;19998;-91
2022/10/03 04:31:45;;;;;;;29.35;24.63;;;18.60;94.70;;;;;;6341277;22;20010;-90
2022/10/03 04:34:39;;;;;;;33.78;27.33;;;18.60;94.70;;;;;;6341651;22;19999;-92
2022/10/03 04:37:19;;;;;;;28.25;23.10;;;18.60;94.70;;;;;;6341302;22;20413;-91
2022/10/03 04:40:23;;;;;;;30.48;24.20;;;18.50;94.70;;;;;;6341422;22;20488;-92
2022/10/03 04:42:57;;;;;;;32.63;22.90;;;18.60;94.70;;;;;;6341704;22;20432;-89
2022/10/03 04:45:28;;;;;;;30.08;25.42;;;18.60;94.60;;;;;;6340330;22;19995;-88
2022/10/03 04:48:27;;;;;;;24.20;20.67;;;18.60;94.60;;;;;;6338639;22;20002;-86
2022/10/03 04:51:09;;;;;;;27.90;22.85;;;18.60;94.60;;;;;;6339479;22;20002;-86
2022/10/03 04:53:41;;;;;;;25.63;22.50;;;18.60;94.60;;;;;;6339710;22;20075;-86
2022/10/03 04:56:26;;;;;;;26.83;21.55;;;18.60;94.50;;;;;;6339126;22;20003;-87
2022/10/03 04:58:55;;;;;;;30.25;23.67;;;18.60;94.50;;;;;;6338385;22;20005;-86
2022/10/03 05:01:37;;;;;;;27.20;22.25;;;18.60;94.70;;;;;;6338804;22;19999;-85
2022/10/03 05:04:22;;;;;;;29.75;24.25;;;18.60;94.40;;;;;;6338522;22;20007;-86
2022/10/03 05:07:14;;;;;;;32.85;26.58;;;18.60;94.40;;;;;;6339054;22;20413;-87
2022/10/03 05:10:24;;;;;;;31.25;24.23;;;18.60;94.50;;;;;;6321804;22;19999;-87
2022/10/03 05:12:53;;;;;;;;;;;18.40;94.60;;;;;;6307433;22;19999;-84
2022/10/03 05:16:01;;;;;;;24.92;21.27;;;18.30;94.90;;;;;;6339668;22;19902;-86
2022/10/03 05:18:54;;;;;;;28.13;23.40;;;18.30;94.80;;;;;;6337180;22;20035;-78
2022/10/03 05:21:39;;;;;;;27.27;22.13;;;18.40;94.70;;;;;;6337513;22;20009;-77
2022/10/03 05:24:45;;;;;;;27.33;21.65;;;18.40;94.70;;;;;;6337677;22;20047;-77
2022/10/03 05:27:32;;;;;;;28.15;23.90;;;18.40;94.70;;;;;;6337044;22;19995;-78
2022/10/03 05:30:34;;;;;;;30.88;25.17;;;18.40;94.60;;;;;;6309030;22;19999;-94
2022/10/03 05:33:14;;;;;;;25.73;21.65;;;18.50;94.40;;;;;;6310552;22;20002;-94
2022/10/03 05:36:01;;;;;;;28.80;22.55;;;18.50;94.40;;;;;;6340760;22;20078;-95
2022/10/03 05:38:58;;;;;;;32.75;24.17;;;18.50;94.40;;;;;;6340089;22;19999;-94
2022/10/03 05:41:31;;;;;;;27.05;22.67;;;18.50;94.30;;;;;;6295749;22;20077;-92
2022/10/03 05:44:04;;;;;;;27.65;23.02;;;18.50;94.30;;;;;;6337082;22;19995;-84
2022/10/03 05:46:58;;;;;;;27.30;23.30;;;18.50;94.40;;;;;;6337263;22;20440;-90
2022/10/03 05:50:00;;;;;;;30.17;22.90;;;18.50;94.40;;;;;;6311263;22;20006;-84
2022/10/03 05:52:38;;;;;;;28.63;22.13;;;18.50;94.30;;;;;;6309034;22;20109;-87
2022/10/03 05:55:03;;;;;;;27.35;22.95;;;18.50;94.30;;;;;;6338540;22;20074;-87
2022/10/03 05:57:44;;;;;;;28.27;23.17;;;18.50;94.20;;;;;;6336441;22;20022;-89
2022/10/03 06:00:23;;;;;;;28.70;21.80;;;18.60;94.20;;;;;;6337066;22;20065;-89
2022/10/03 06:03:19;;;;;;;36.67;24.02;;;18.60;94.20;;;;;;6310839;22;20023;-89
2022/10/03 06:06:06;;;;;;;27.33;23.30;;;18.60;94.20;;;;;;6339368;22;20003;-89
2022/10/03 06:09:06;;;;;;;27.77;23.00;;;18.50;94.30;;;;;;6339550;22;19999;-89
2022/10/03 06:12:21;;;;;;;27.48;22.92;;;18.50;94.30;;;;;;6312679;22;20014;-88
2022/10/03 06:15:24;;;;;;;26.77;22.77;;;18.50;94.40;;;;;;6312097;22;20003;-89
2022/10/03 06:18:02;;;;;;;27.58;23.25;;;18.50;94.30;;;;;;6339070;22;20340;-89
2022/10/03 06:20:50;;;;;;;29.05;24.20;;;18.60;94.30;;;;;;6340015;22;20009;-89
2022/10/03 06:23:57;;;;;;;37.67;29.98;;;18.60;94.40;;;;;;6311690;22;20034;-89
2022/10/03 06:26:47;;;;;;;28.65;23.02;;;18.60;94.40;;;;;;6338503;22;19995;-89
2022/10/03 06:29:31;;;;;;;;;;;18.60;94.40;;;;;;6339131;22;20070;-88
2022/10/03 06:32:18;;;;;;;27.58;21.65;;;18.60;94.50;;;;;;6311159;22;19906;-89
2022/10/03 06:35:05;;;;;;;30.83;25.60;;;18.60;94.50;;;;;;6338392;22;20422;-87
2022/10/03 06:38:12;;;;;;;28.48;22.55;;;18.60;94.50;;;;;;6311273;22;20007;-87
2022/10/03 06:41:14;;;;;;;25.98;21.65;;;18.60;94.40;;;;;;6337997;22;20003;-87
2022/10/03 06:43:46;;;;;;;30.55;26.02;;;18.70;94.50;;;;;;6339340;22;20748;-88
2022/10/03 06:46:49;;;;;;;24.63;21.30;;;18.70;94.40;;;;;;6338970;22;20007;-88
2022/10/03 06:49:45;;;;;;;36.15;25.05;;;18.70;94.30;;;;;;6338399;22;19995;-88
2022/10/03 06:52:29;;;;;;;26.30;19.77;;;18.60;94.50;;;;;;6338176;22;20022;-89
2022/10/03 06:55:19;;;;;;;23.88;19.92;;;18.50;94.50;;;;;;6338780;22;20002;-89
2022/10/03 06:58:04;;;;;;;;;;;18.60;94.50;;;;;;6338869;22;20007;-88
2022/10/03 07:01:13;;;;;;;27.13;22.30;;;18.60;94.80;;;;;;6338169;22;19963;-88
2022/10/03 07:03:48;;;;;;;22.13;19.13;;;18.60;94.70;;;;;;6310670;22;20014;-87
2022/10/03 07:06:14;;;;;;;29.00;23.40;;;18.60;94.50;;;;;;6338736;22;19999;-89
2022/10/03 07:09:07;;;;;;;26.08;21.85;;;18.70;94.40;;;;;;6338765;22;20324;-89
2022/10/03 07:11:51;;;;;;;30.02;21.77;;;18.70;94.20;;;;;;6339615;22;20427;-88
2022/10/03 07:14:54;;;;;;;24.30;18.27;;;18.80;94.20;;;;;;6334208;22;20044;-89
2022/10/03 07:17:55;;;;;;;22.63;19.35;;;18.90;94.20;;;;;;6341452;22;20011;-89
2022/10/03 07:20:32;;;;;;;29.58;22.27;;;19.00;94.10;;;;;;6232863;22;20003;-89
2022/10/03 07:23:24;;;;;;;20.30;16.50;;;19.00;93.80;;;;;;6339311;22;20029;-88
2022/10/03 07:26:18;;;;;;;18.65;16.25;;;19.10;93.80;;;;;;6340432;22;20006;-89
2022/10/03 07:28:49;;;;;;;25.38;18.10;;;19.20;93.70;;;;;;6342911;22;19994;-90
2022/10/03 07:31:36;;;;;;;18.38;15.32;;;19.30;93.60;;;;;;6313284;22;20006;-87
2022/10/03 07:34:23;;;;;;;25.58;19.23;;;19.30;93.50;;;;;;6339653;22;20010;-88
2022/10/03 07:40:34;;;;;;;19.10;15.25;;;19.50;93.40;;;;;;6339635;22;20332;-88
2022/10/03 07:43:24;;;;;;;21.02;14.68;;;19.60;93.20;;;;;;6339606;22;20010;-87
2022/10/03 07:46:03;;;;;;;18.08;13.90;;;19.70;93.10;;;;;;6338562;22;20007;-86
2022/10/03 07:49:01;;;;;;;17.10;11.52;;;19.80;93.00;;;;;;6338901;22;20013;-86
2022/10/03 07:51:43;;;;;;;17.98;13.60;;;19.90;93.00;;;;;;6290904;22;20021;-87
2022/10/03 07:54:31;;;;;;;18.77;14.93;;;20.00;92.60;;;;;;6339285;22;20002;-86
2022/10/03 07:57:36;;;;;;;18.08;13.20;;;20.10;92.80;;;;;;6337458;22;20003;-86
2022/10/03 08:00:11;;;;;;;17.92;13.50;;;20.20;92.50;;;;;;6338137;22;20003;-85
2022/10/03 08:02:58;;;;;;;20.05;15.35;;;20.40;92.40;;;;;;6310542;22;20095;-86
2022/10/03 08:05:30;;;;;;;12.38;10.18;;;20.40;92.30;;;;;;6339768;22;20009;-86
2022/10/03 08:08:33;;;;;;;19.58;14.43;;;20.50;92.20;;;;;;6339488;22;20002;-86
2022/10/03 08:11:13;;;;;;;17.52;11.93;;;20.70;92.00;;;;;;6339135;22;20052;-85
2022/10/03 08:14:26;;;;;;;16.70;13.68;;;20.80;91.80;;;;;;6337861;22;20003;-86
2022/10/03 08:17:15;;;;;;;15.80;12.23;;;20.90;91.00;;;;;;6212731;23;20008;-86
2022/10/03 08:19:41;;;;;;;19.75;12.57;;;21.00;91.10;;;;;;6306974;22;20003;-86
2022/10/03 08:22:14;;;;;;;15.27;11.55;;;21.10;90.80;;;;;;6338884;22;20025;-87
2022/10/03 08:25:14;;;;;;;14.15;10.32;;;21.10;90.90;;;;;;6338473;22;20009;-86
2022/10/03 08:28:07;;;;;;;11.30;9.20;;;21.20;90.90;;;;;;6311408;22;20003;-87
2022/10/03 08:31:14;;;;;;;14.57;11.25;;;21.40;90.80;;;;;;6339626;22;20048;-87
2022/10/03 08:33:53;;;;;;;17.73;12.57;;;21.60;90.40;;;;;;6285664;22;20006;-86
2022/10/03 08:36:36;;;;;;;18.20;13.38;;;21.70;90.20;;;;;;6338705;22;20306;-86
2022/10/03 08:39:13;;;;;;;12.93;9.35;;;21.70;87.90;;;;;;6338420;22;19999;-87
2022/10/03 08:42:03;;;;;;;10.00;8.50;;;21.80;89.50;;;;;;6338407;22;20007;-88
2022/10/03 08:44:57;;;;;;;10.15;8.15;;;21.90;89.40;;;;;;6312675;22;20433;-91
2022/10/03 08:47:34;;;;;;;11.45;8.50;;;22.00;89.30;;;;;;6339498;22;20106;-90
2022/10/03 08:50:18;;;;;;;13.13;9.88;;;22.30;89.00;;;;;;6337558;22;19998;-90
2022/10/03 08:52:44;;;;;;;10.60;7.88;;;22.40;87.70;;;;;;6339104;22;20324;-86
2022/10/03 08:56:06;;;;;;;10.10;7.18;;;22.50;88.20;;;;;;6339696;22;20018;-89
2022/10/03 08:58:57;;;;;;;9.95;6.63;;;22.70;88.10;;;;;;6201078;22;20360;-91
2022/10/03 09:01:47;;;;;;;7.57;6.40;;;22.80;87.50;;;;;;6340318;22;20076;-91
2022/10/03 09:04:49;;;;;;;7.65;5.82;;;23.10;86.90;;;;;;6340147;22;20007;-89
2022/10/03 09:07:28;;;;;;;5.35;4.82;;;23.20;85.40;;;;;;6338792;22;19999;-89
2022/10/03 09:10:24;;;;;;;9.27;6.70;;;23.40;84.90;;;;;;6338319;22;20051;-88
2022/10/03 09:12:51;;;;;;;7.25;5.78;;;23.50;83.90;;;;;;6339007;22;20010;-83
2022/10/03 09:16:02;;;;;;;6.90;4.75;;;23.60;83.70;;;;;;6310432;22;20468;-84
2022/10/03 09:18:44;;;;;;;6.70;3.97;;;23.80;83.30;;;;;;6295251;22;20006;-84
2022/10/03 09:21:39;;;;;;;7.63;5.00;;;23.90;83.00;;;;;;6332885;22;20006;-84
2022/10/03 09:24:18;;;;;;;7.57;4.80;;;24.10;82.80;;;;;;6305576;22;20007;-84
2022/10/03 09:26:49;;;;;;;7.10;5.35;;;24.20;82.50;;;;;;6337469;22;20024;-88
2022/10/03 09:29:53;;;;;;;6.00;4.50;;;24.40;82.10;;;;;;6339039;22;20006;-86
2022/10/03 09:32:40;;;;;;;6.20;4.32;;;24.50;81.30;;;;;;6337072;22;20003;-84
2022/10/03 09:35:34;;;;;;;5.15;4.07;;;24.60;81.00;;;;;;6312095;22;20007;-85
2022/10/03 09:38:44;;;;;;;6.03;4.60;;;24.80;80.50;;;;;;6339781;22;20006;-89
2022/10/03 09:41:37;;;;;;;6.25;4.57;;;24.80;80.00;;;;;;6273764;22;20030;-84
2022/10/03 09:44:21;;;;;;;6.50;4.05;;;25.00;80.20;;;;;;6249035;22;20349;-85
2022/10/03 09:47:27;;;;;;;5.20;3.42;;;25.10;77.70;;;;;;6306734;22;20011;-84
2022/10/03 09:50:18;;;;;;;4.75;3.28;;;25.20;79.20;;;;;;6341477;22;20035;-90
2022/10/03 09:53:23;;;;;;;4.40;3.70;;;25.30;79.00;;;;;;6339037;22;19999;-87
2022/10/03 09:56:22;;;;;;;4.07;3.05;;;25.40;77.50;;;;;;6312032;22;20006;-83
2022/10/03 09:59:06;;;;;;;3.67;2.85;;;25.50;77.20;;;;;;6311581;22;20014;-86
2022/10/03 10:01:56;;;;;;;4.45;2.58;;;25.60;76.60;;;;;;6311074;22;20302;-86
2022/10/03 10:04:33;;;;;;;3.63;3.10;;;25.80;76.50;;;;;;6338634;22;20010;-86
2022/10/03 10:07:36;;;;;;;3.38;2.63;;;25.90;75.60;;;;;;6339142;22;20052;-87
2022/10/03 10:10:32;;;;;;;3.00;2.47;;;26.00;75.10;;;;;;6337495;22;20018;-89
2022/10/03 10:13:16;;;;;;;3.40;2.58;;;26.10;74.50;;;;;;6338750;22;20436;-90
2022/10/03 10:15:52;;;;;;;3.35;2.42;;;26.20;74.40;;;;;;6338438;22;20019;-88
2022/10/03 10:18:56;;;;;;;2.50;2.30;;;26.30;74.20;;;;;;6338244;22;20032;-90
2022/10/03 10:21:52;;;;;;;5.20;2.30;;;26.40;73.40;;;;;;6339093;22;20128;-90
2022/10/03 10:24:56;;;;;;;3.40;2.67;;;26.50;73.20;;;;;;6339950;22;19998;-90
2022/10/03 10:27:27;;;;;;;4.15;3.22;;;26.60;72.80;;;;;;6341074;22;20074;-91
2022/10/03 10:30:30;;;;;;;5.85;3.58;;;26.70;72.60;;;;;;6339262;22;19995;-89
2022/10/03 10:33:37;;;;;;;2.65;2.45;;;26.80;72.50;;;;;;6311356;22;20006;-90
2022/10/03 10:36:48;;;;;;;3.72;2.55;;;26.80;70.90;;;;;;6293479;22;20042;-89
2022/10/03 10:39:31;;;;;;;3.60;2.70;;;26.80;70.30;;;;;;6338702;22;19998;-90
2022/10/03 10:42:18;;;;;;;4.00;2.85;;;26.80;70.30;;;;;;6341187;22;19999;-90
2022/10/03 10:45:44;;;;;;;4.57;2.20;;;26.80;70.20;;;;;;6339539;22;20007;-89
2022/10/03 10:48:32;;;;;;;3.30;1.90;;;26.90;69.90;;;;;;6327827;22;20002;-90
2022/10/03 10:51:25;;;;;;;5.20;2.22;;;27.10;70.30;;;;;;6341188;22;20029;-91
2022/10/03 10:54:24;;;;;;;4.10;3.00;;;27.20;69.40;;;;;;6342050;22;20028;-91
2022/10/03 10:57:14;;;;;;;2.70;1.63;;;27.10;67.20;;;;;;6342938;22;20000;-87
2022/10/03 11:00:08;;;;;;;4.75;2.15;;;27.10;69.10;;;;;;6338305;22;20381;-87
2022/10/03 11:03:03;;;;;;;4.00;2.10;;;27.20;68.50;;;;;;6334942;22;20413;-86
2022/10/03 11:06:23;;;;;;;4.57;2.17;;;27.40;68.00;;;;;;6340522;22;20429;-89
2022/10/03 11:08:52;;;;;;;3.00;2.20;;;27.60;67.50;;;;;;6276560;22;20027;-90
2022/10/03 11:11:42;;;;;;;4.03;2.20;;;27.80;67.00;;;;;;6338451;22;20010;-91
2022/10/03 11:15:04;;;;;;;3.72;2.90;;;27.80;66.10;;;;;;6341940;22;20003;-91
2022/10/03 11:18:04;;;;;;;7.07;4.05;;;27.90;66.70;;;;;;6348700;22;20005;-92
2022/10/03 11:20:56;;;;;;;7.45;4.88;;;28.00;66.50;;;;;;6316371;22;20003;-92
2022/10/03 11:23:51;;;;;;;4.05;3.40;;;28.10;66.50;;;;;;6342242;22;20002;-94
2022/10/03 11:26:36;;;;;;;5.32;3.55;;;28.20;66.90;;;;;;6341815;22;20002;-94
2022/10/03 11:29:38;;;;;;;8.13;4.03;;;28.00;65.80;;;;;;6342198;22;20026;-93
2022/10/03 11:32:23;;;;;;;9.07;4.32;;;28.20;66.90;;;;;;6287565;22;20007;-93
2022/10/03 11:35:06;;;;;;;16.10;11.32;;;28.50;66.50;;;;;;6342794;22;20002;-92
2022/10/03 11:37:54;;;;;;;5.90;4.57;;;28.80;65.90;;;;;;6341240;22;20389;-92
2022/10/03 11:40:46;;;;;;;5.80;4.28;;;29.20;65.10;;;;;;6342804;22;20086;-89
2022/10/03 11:44:06;;;;;;;6.43;4.07;;;29.30;63.90;;;;;;6307894;22;20010;-91
2022/10/03 11:46:49;;;;;;;8.77;5.75;;;29.70;63.70;;;;;;6276453;22;20008;-91
2022/10/03 11:49:50;;;;;;;7.95;6.03;;;30.00;62.10;;;;;;6336141;22;20075;-90
2022/10/03 11:52:33;;;;;;;6.45;4.97;;;30.10;62.20;;;;;;6342056;22;20052;-87
2022/10/03 11:55:22;;;;;;;7.03;3.95;;;30.20;62.60;;;;;;6339827;22;20306;-88
2022/10/03 11:58:15;;;;;;;5.75;4.20;;;30.40;62.80;;;;;;6339050;22;20088;-87
2022/10/03 12:00:45;;;;;;;8.48;5.20;;;30.50;61.60;;;;;;6312093;22;20007;-87
2022/10/03 12:03:25;;;;;;;6.88;4.53;;;30.70;60.70;;;;;;6337635;22;20073;-85
2022/10/03 12:09:25;;;;;;;6.40;3.90;;;30.90;60.00;;;;;;6340465;22;20038;-89
2022/10/03 12:12:28;;;;;;;6.78;4.47;;;31.00;58.90;;;;;;6311857;22;20014;-89
2022/10/03 12:15:02;;;;;;;5.75;4.18;;;30.90;58.60;;;;;;6338797;22;20030;-88
2022/10/03 12:17:33;;;;;;;6.88;4.43;;;30.80;58.90;;;;;;6339436;22;20025;-86
2022/10/03 12:20:23;;;;;;;5.63;3.65;;;30.80;58.70;;;;;;6338896;22;20057;-85
2022/10/03 12:23:06;;;;;;;7.80;4.57;;;30.70;58.90;;;;;;6339372;22;20003;-86
2022/10/03 12:25:35;;;;;;;4.65;4.10;;;30.60;59.10;;;;;;6310805;22;19999;-87
2022/10/03 12:28:24;;;;;;;5.72;3.97;;;30.50;59.20;;;;;;6338605;22;20082;-88
2022/10/03 12:31:20;;;;;;;11.57;4.47;;;30.60;59.00;;;;;;6339535;22;20003;-87
2022/10/03 12:34:19;;;;;;;6.45;4.22;;;30.60;58.90;;;;;;6339437;22;20023;-88
2022/10/03 12:36:54;;;;;;;4.83;3.90;;;30.70;58.30;;;;;;6339682;22;19999;-90
2022/10/03 12:39:43;;;;;;;8.68;3.88;;;30.80;58.10;;;;;;6338513;22;20221;-84
2022/10/03 12:42:29;;;;;;;7.40;3.72;;;30.80;58.10;;;;;;6339195;22;20006;-87
2022/10/03 12:45:20;;;;;;;5.93;3.22;;;30.60;58.00;;;;;;6311039;22;19998;-86
2022/10/03 12:47:57;;;;;;;9.05;3.40;;;30.30;58.00;;;;;;6338957;22;20001;-87
2022/10/03 12:50:44;;;;;;;6.18;3.65;;;30.00;58.10;;;;;;6338715;22;20052;-87
2022/10/03 12:53:16;;;;;;;10.25;4.07;;;29.70;58.40;;;;;;6338663;22;20064;-87
2022/10/03 12:56:37;;;;;;;5.68;3.40;;;29.20;59.10;;;;;;6339609;22;19995;-87
2022/10/03 12:59:18;;;;;;;8.65;4.05;;;28.70;59.60;;;;;;6267919;22;20325;-87
2022/10/03 13:01:58;;;;;;;4.70;3.88;;;28.30;60.50;;;;;;6338855;22;20002;-88
2022/10/03 13:04:24;;;;;;;5.32;3.20;;;28.00;61.60;;;;;;6338984;22;20011;-87
2022/10/03 13:06:50;;;;;;;6.85;5.05;;;27.70;61.90;;;;;;6339225;22;20362;-87
2022/10/03 13:09:41;;;;;;;6.47;4.03;;;27.40;62.10;;;;;;6338405;22;20021;-86
2022/10/03 13:12:19;;;;;;;5.32;3.63;;;27.20;62.90;;;;;;6339241;22;20068;-86
2022/10/03 13:15:17;;;;;;;4.80;2.55;;;27.00;63.50;;;;;;6339128;22;20002;-87
2022/10/03 13:17:58;;;;;;;5.05;2.80;;;26.80;63.70;;;;;;6339200;22;20143;-86
2022/10/03 13:20:42;;;;;;;3.47;1.92;;;26.60;64.00;;;;;;6339251;22;19998;-87
2022/10/03 13:23:29;;;;;;;4.03;2.38;;;26.50;64.50;;;;;;6339817;22;20081;-88
2022/10/03 13:26:16;;;;;;;5.22;3.38;;;26.40;64.70;;;;;;6339109;22;19995;-86
2022/10/03 13:29:12;;;;;;;4.25;2.55;;;26.10;64.00;;;;;;6338464;22;20014;-87
2022/10/03 13:32:07;;;;;;;3.97;2.35;;;26.00;64.40;;;;;;6338374;22;20003;-86
2022/10/03 13:34:44;;;;;;;3.35;2.30;;;25.90;65.90;;;;;;6284044;22;20007;-87
2022/10/03 13:37:32;;;;;;;5.93;3.28;;;25.80;66.10;;;;;;6340079;22;20482;-88
2022/10/03 13:40:08;;;;;;;6.03;3.05;;;25.80;66.20;;;;;;6312767;22;20060;-86
2022/10/03 13:42:46;;;;;;;6.43;2.50;;;25.80;66.40;;;;;;6339517;22;20380;-87
2022/10/03 13:45:19;;;;;;;4.55;2.60;;;25.80;66.70;;;;;;6339003;22;20003;-87
2022/10/03 13:47:45;;;;;;;3.78;2.83;;;25.80;67.00;;;;;;6338890;22;19995;-87
2022/10/03 13:50:35;;;;;;;3.60;2.80;;;25.80;67.10;;;;;;6311236;22;20009;-87
2022/10/03 13:53:26;;;;;;;3.17;2.65;;;25.80;67.30;;;;;;6339347;22;20009;-87
2022/10/03 13:56:00;;;;;;;3.75;2.65;;;25.80;67.70;;;;;;6305419;22;20010;-88
2022/10/03 13:58:56;;;;;;;6.35;3.30;;;25.70;67.00;;;;;;6311363;22;20083;-85
2022/10/03 14:01:32;;;;;;;5.93;2.92;;;25.70;67.20;;;;;;6338223;22;20052;-84
2022/10/03 14:04:21;;;;;;;9.10;2.60;;;25.60;67.60;;;;;;6338585;22;20011;-84
2022/10/03 14:06:50;;;;;;;8.80;3.20;;;25.50;67.60;;;;;;6338152;22;20353;-84
2022/10/03 14:09:16;;;;;;;3.20;2.42;;;25.40;67.90;;;;;;6310028;22;20030;-85
2022/10/03 14:11:47;;;;;;;5.10;2.97;;;25.40;68.10;;;;;;6338258;22;20006;-85
2022/10/03 14:14:23;;;;;;;4.72;3.30;;;25.40;67.90;;;;;;6338886;22;20037;-84
2022/10/03 14:17:07;;;;;;;7.07;4.00;;;25.40;67.90;;;;;;6338163;22;19999;-84
2022/10/03 14:20:04;;;;;;;4.68;3.10;;;25.30;67.50;;;;;;6338216;22;20077;-84
2022/10/03 14:22:41;;;;;;;5.32;3.95;;;25.30;67.90;;;;;;6338826;22;19998;-85
2022/10/03 14:25:18;;;;;;;9.07;3.53;;;25.20;68.00;;;;;;6338312;22;20310;-87
2022/10/03 14:27:51;;;;;;;4.95;3.40;;;25.20;68.30;;;;;;6338790;22;20006;-87
2022/10/03 14:30:20;;;;;;;10.20;3.38;;;25.20;68.50;;;;;;6338399;22;20018;-87